Time;durP1;ratioP1;P1;durP2;ratioP2;P2;SDS_P1;SDS_P2;PMS_P1;PMS_P2;Temp;Humidity;BMP_temperature;BMP_pressure;BME280_temperature;BME280_humidity;BME280_pressure;Samples;Min_cycle;Max_cycle;Signal;HPM_P1;HPM_P2
2023/04/11 00:00:42;;;;;;;9.50;5.50;;;;;;;6.90;88.63;99127.41;105204;1267;74174;-21
2023/04/11 00:03:11;;;;;;;10.80;6.20;;;;;;;6.65;89.31;99119.65;105682;1267;75748;-21
2023/04/11 00:05:40;;;;;;;8.50;4.40;;;;;;;6.35;91.05;99121.05;105693;1255;74101;-23
2023/04/11 00:08:15;;;;;;;6.90;4.30;;;;;;;6.59;90.56;99118.00;105582;1260;61981;-24
2023/04/11 00:10:45;;;;;;;8.80;5.40;;;;;;;6.93;88.65;99125.11;105698;1259;61629;-25
2023/04/11 00:13:13;;;;;;;7.20;5.30;;;;;;;6.85;88.37;99118.08;105619;1259;74156;-22
2023/04/11 00:15:44;;;;;;;8.30;5.60;;;;;;;6.74;88.46;99119.09;105660;1258;75868;-22
2023/04/11 00:18:14;;;;;;;7.90;5.30;;;;;;;6.44;89.60;99119.09;105223;1258;72354;-22
2023/04/11 00:20:43;;;;;;;6.20;3.00;;;;;;;6.25;90.97;99123.05;105582;1260;63282;-23
2023/04/11 00:23:12;;;;;;;7.30;3.60;;;;;;;6.71;90.30;99125.67;105636;1262;61574;-23
2023/04/11 00:25:40;;;;;;;6.60;4.50;;;;;;;7.23;87.87;99124.39;105582;1261;74624;-23
2023/04/11 00:28:09;;;;;;;6.60;4.60;;;;;;;7.15;85.97;99124.89;105379;1262;75840;-23
2023/04/11 00:30:38;;;;;;;5.20;4.20;;;;;;;6.85;86.32;99117.05;105395;1262;74300;-23
2023/04/11 00:33:08;;;;;;;7.40;4.60;;;;;;;6.47;88.19;99114.95;105477;1257;62650;-23
2023/04/11 00:35:39;;;;;;;7.50;3.50;;;;;;;6.17;90.33;99113.35;105510;1261;61094;-23
2023/04/11 00:38:07;;;;;;;5.40;3.30;;;;;;;6.47;90.08;99113.07;105314;1263;74409;-23
2023/04/11 00:40:36;;;;;;;4.90;3.80;;;;;;;6.99;87.20;99109.41;105611;1264;75783;-23
2023/04/11 00:43:24;;;;;;;9.30;4.00;;;;;;;6.90;85.65;99112.22;105606;1257;75448;-23
2023/04/11 00:45:53;;;;;;;7.80;5.70;;;;;;;6.63;86.40;99109.82;105456;1260;61996;-23
2023/04/11 00:48:23;;;;;;;7.40;5.50;;;;;;;6.14;88.71;99108.20;105620;1270;62049;-23
2023/04/11 00:50:55;;;;;;;4.20;3.00;;;;;;;5.89;90.70;99113.11;105617;1258;74623;-22
2023/04/11 00:53:25;;;;;;;23.50;12.20;;;;;;;6.25;90.18;99108.77;105307;1263;75642;-23
2023/04/11 00:55:53;;;;;;;50.30;24.80;;;;;;;6.62;87.70;99109.86;105492;1261;72650;-23
2023/04/11 00:58:22;;;;;;;65.00;30.60;;;;;;;6.53;87.33;99108.90;105465;1257;61947;-23
2023/04/11 01:00:51;;;;;;;112.10;50.30;;;;;;;6.32;88.02;99113.48;105234;1261;61598;-23
2023/04/11 01:03:21;;;;;;;36.00;19.40;;;;;;;6.01;89.42;99112.60;105714;1260;74612;-23
2023/04/11 01:05:53;;;;;;;13.70;6.20;;;;;;;5.82;90.53;99114.26;105717;1256;74769;-22
2023/04/11 01:08:23;;;;;;;7.20;4.60;;;;;;;6.11;90.02;99113.16;105709;1257;74052;-23
2023/04/11 01:10:52;;;;;;;10.70;6.50;;;;;;;6.33;87.95;99111.17;105904;1256;61769;-23
2023/04/11 01:13:21;;;;;;;10.60;6.80;;;;;;;6.20;88.11;99104.90;105843;1258;61805;-23
2023/04/11 01:15:52;;;;;;;11.20;6.70;;;;;;;5.96;89.02;99110.64;105732;1258;73624;-23
2023/04/11 01:18:22;;;;;;;9.00;6.20;;;;;;;5.77;90.04;99109.54;105761;1257;75648;-23
2023/04/11 01:20:50;;;;;;;5.00;3.80;;;;;;;5.60;90.69;99106.27;105667;1254;74115;-23
2023/04/11 01:23:21;;;;;;;7.20;3.90;;;;;;;5.78;90.55;99107.23;105654;1261;61839;-23
2023/04/11 01:25:50;;;;;;;6.70;4.10;;;;;;;5.96;89.22;99103.75;105566;1251;61844;-24
2023/04/11 01:28:19;;;;;;;8.30;5.00;;;;;;;5.80;89.57;99105.58;105683;1254;74551;-23
2023/04/11 01:30:48;;;;;;;6.70;5.10;;;;;;;5.60;90.54;99102.45;105966;1254;75812;-23
2023/04/11 01:33:18;;;;;;;7.00;4.80;;;;;;;5.35;91.94;99101.34;105717;1260;74098;-23
2023/04/11 01:35:46;;;;;;;4.90;3.80;;;;;;;5.15;92.97;99101.13;105718;1257;63465;-23
2023/04/11 01:38:15;;;;;;;6.20;4.10;;;;;;;5.45;92.52;99095.28;105942;1256;61871;-24
2023/04/11 01:40:44;;;;;;;5.20;4.20;;;;;;;5.81;90.44;99090.70;105914;1259;74573;-23
2023/04/11 01:43:12;;;;;;;10.40;4.90;;;;;;;5.87;89.29;99092.42;105764;1259;75613;-23
2023/04/11 01:45:43;;;;;;;7.70;5.30;;;;;;;5.70;89.09;99093.80;105945;1255;74123;-23
2023/04/11 01:48:13;;;;;;;5.40;4.50;;;;;;;5.52;90.32;99095.73;105629;1259;61236;-23
2023/04/11 01:50:41;;;;;;;4.30;3.30;;;;;;;5.37;90.27;99099.02;105521;1252;61827;-23
2023/04/11 01:53:12;;;;;;;4.40;2.90;;;;;;;5.72;89.95;99101.55;105905;1255;74783;-23
2023/04/11 01:55:40;;;;;;;6.20;4.40;;;;;;;6.15;87.38;99093.33;105709;1258;75821;-23
2023/04/11 01:58:09;;;;;;;6.30;4.60;;;;;;;5.99;86.86;99093.59;105703;1257;74164;-23
2023/04/11 02:00:38;;;;;;;6.20;4.70;;;;;;;5.71;88.18;99093.73;105581;1253;61877;-23
2023/04/11 02:03:07;;;;;;;7.40;5.80;;;;;;;5.50;88.73;99095.79;105766;1255;61750;-23
2023/04/11 02:05:36;;;;;;;4.80;3.50;;;;;;;5.35;89.57;99093.10;105772;1254;74350;-23
2023/04/11 02:08:06;;;;;;;4.40;3.50;;;;;;;5.75;88.68;99095.72;105910;1255;75601;-23
2023/04/11 02:10:35;;;;;;;7.50;5.70;;;;;;;6.20;86.61;99091.28;105629;1258;72266;-23
2023/04/11 02:13:03;;;;;;;13.00;6.40;;;;;;;6.10;85.46;99086.72;105929;1256;61715;-23
2023/04/11 02:15:40;;;;;;;8.70;7.10;;;;;;;5.86;85.80;99086.94;105806;1257;61879;-23
2023/04/11 02:18:11;;;;;;;9.80;7.70;;;;;;;5.53;86.91;99088.39;105937;1256;74685;-23
2023/04/11 02:20:40;;;;;;;11.00;7.10;;;;;;;5.28;88.09;99090.58;105716;1260;75613;-23
2023/04/11 02:23:15;;;;;;;6.70;4.70;;;;;;;4.97;90.23;99089.60;105890;1256;74141;-23
2023/04/11 02:25:44;;;;;;;7.10;5.00;;;;;;;5.30;90.40;99087.73;105862;1256;61113;-23
2023/04/11 02:28:12;;;;;;;8.10;6.00;;;;;;;5.87;88.15;99082.45;105918;1255;61138;-23
2023/04/11 02:30:41;;;;;;;11.50;6.30;;;;;;;5.93;86.36;99078.95;105912;1256;74282;-23
2023/04/11 02:33:12;;;;;;;10.60;6.70;;;;;;;5.76;86.39;99081.90;105713;1266;74600;-23
2023/04/11 02:35:41;;;;;;;11.60;8.20;;;;;;;5.49;86.72;99081.59;105905;1256;74006;-23
2023/04/11 02:38:10;;;;;;;10.30;7.80;;;;;;;5.18;87.70;99081.15;105958;1256;61159;-23
2023/04/11 02:40:40;;;;;;;7.60;5.30;;;;;;;4.99;87.91;99082.25;105623;1253;61854;-23
2023/04/11 02:43:10;;;;;;;9.00;6.30;;;;;;;5.36;88.14;99082.37;105858;1256;74323;-23
2023/04/11 02:45:40;;;;;;;10.10;7.60;;;;;;;5.80;86.32;99079.90;105858;1258;75734;-23
2023/04/11 02:48:09;;;;;;;12.00;8.40;;;;;;;5.81;85.57;99078.15;105659;1259;74212;-23
2023/04/11 02:50:42;;;;;;;21.60;14.40;;;;;;;5.56;85.89;99073.06;105671;1253;62105;-23
2023/04/11 02:53:11;;;;;;;27.90;20.50;;;;;;;5.24;87.00;99067.42;105960;1254;61038;-23
2023/04/11 02:55:48;;;;;;;29.30;20.60;;;;;;;4.94;88.22;99067.40;105719;1257;74472;-23
2023/04/11 02:58:18;;;;;;;14.00;9.50;;;;;;;4.75;89.18;99065.75;105778;1254;75384;-23
2023/04/11 03:00:48;;;;;;;24.30;15.60;;;;;;;5.16;89.25;99067.34;105727;1254;73181;-23
2023/04/11 03:03:25;;;;;;;28.10;18.50;;;;;;;5.59;87.09;99069.16;105895;1256;61917;-23
2023/04/11 03:05:55;;;;;;;32.50;21.20;;;;;;;5.46;86.76;99064.39;105728;1257;61837;-23
2023/04/11 03:08:25;;;;;;;201.80;79.40;;;;;;;5.22;87.82;99063.22;105891;1256;74515;-23
2023/04/11 03:10:55;;;;;;;137.40;55.00;;;;;;;4.94;89.14;99069.11;105754;1254;74924;-20
2023/04/11 03:13:25;;;;;;;64.60;27.00;;;;;;;4.79;90.11;99066.05;105890;1254;74554;-20
2023/04/11 03:15:54;;;;;;;80.30;29.10;;;;;;;5.00;89.60;99066.19;105921;1254;61912;-20
2023/04/11 03:18:25;;;;;;;158.20;45.60;;;;;;;5.23;88.50;99062.33;105936;1256;62492;-23
2023/04/11 03:20:55;;;;;;;128.50;38.60;;;;;;;5.23;87.84;99065.05;105929;1256;74484;-23
2023/04/11 03:23:26;;;;;;;77.30;26.90;;;;;;;5.06;88.56;99064.16;105955;1254;75871;-23
2023/04/11 03:25:55;;;;;;;48.90;18.60;;;;;;;4.90;89.19;99071.26;105971;1257;73945;-24
2023/04/11 03:28:24;;;;;;;42.30;16.40;;;;;;;4.71;89.64;99073.71;105898;1255;61954;-23
2023/04/11 03:30:53;;;;;;;22.90;10.10;;;;;;;4.57;90.63;99069.68;105940;1256;61595;-24
2023/04/11 03:33:25;;;;;;;33.00;13.50;;;;;;;5.10;89.56;99058.42;105689;1257;74319;-23
2023/04/11 03:35:53;;;;;;;79.20;33.80;;;;;;;5.46;86.95;99061.48;105934;1257;76157;-23
2023/04/11 03:38:23;;;;;;;91.70;44.20;;;;;;;5.20;87.20;99058.54;105799;1252;72234;-23
2023/04/11 03:40:52;;;;;;;111.40;57.00;;;;;;;5.00;88.67;99061.39;105321;1261;61190;-23
2023/04/11 03:43:23;;;;;;;82.80;42.10;;;;;;;4.90;89.38;99062.29;105719;1254;61189;-23
2023/04/11 03:45:52;;;;;;;83.20;41.50;;;;;;;4.79;89.65;99064.30;105819;1255;75393;-23
2023/04/11 03:48:32;;;;;;;49.60;25.90;;;;;;;4.68;90.49;99067.15;105873;1254;75743;-23
2023/04/11 03:51:05;;;;;;;106.10;51.20;;;;;;;5.06;89.52;99064.33;105914;1255;73324;-23
2023/04/11 03:53:42;;;;;;;187.50;84.10;;;;;;;5.39;87.63;99063.45;105719;1254;61569;-23
2023/04/11 03:56:23;;;;;;;118.00;56.30;;;;;;;5.22;87.63;99068.73;105713;1257;61947;-23
2023/04/11 03:58:52;;;;;;;120.70;55.20;;;;;;;5.08;88.82;99073.35;105924;1254;75383;-23
2023/04/11 04:01:22;;;;;;;111.30;50.80;;;;;;;5.01;89.32;99074.77;105934;1255;75869;-23
2023/04/11 04:03:52;;;;;;;84.00;42.00;;;;;;;4.98;89.70;99072.67;105934;1257;74148;-23
2023/04/11 04:06:21;;;;;;;173.50;74.20;;;;;;;5.42;88.55;99070.31;105891;1254;61997;-23
2023/04/11 04:08:51;;;;;;;133.70;59.90;;;;;;;5.76;86.39;99069.83;105908;1257;61888;-23
2023/04/11 04:11:20;;;;;;;109.20;51.30;;;;;;;5.87;85.48;99071.90;105951;1254;75341;-23
2023/04/11 04:13:49;;;;;;;66.00;32.80;;;;;;;5.97;85.23;99070.46;105920;1257;75864;-23
2023/04/11 04:16:19;;;;;;;76.00;39.30;;;;;;;5.58;86.11;99071.92;105696;1260;74398;-23
2023/04/11 04:18:52;;;;;;;67.90;35.50;;;;;;;5.28;88.20;99070.25;105592;1259;63793;-23
2023/04/11 04:21:25;;;;;;;82.60;37.40;;;;;;;5.79;86.95;99072.37;105678;1254;61576;-23
2023/04/11 04:24:02;;;;;;;42.60;23.80;;;;;;;6.34;83.96;99062.45;105929;1257;74354;-23
2023/04/11 04:26:56;;;;;;;67.90;37.20;;;;;;;6.21;83.29;99063.98;105706;1254;75626;-23
2023/04/11 04:29:47;;;;;;;107.10;56.40;;;;;;;6.04;84.60;99066.05;105753;1254;73942;-23
2023/04/11 04:32:29;;;;;;;88.90;45.10;;;;;;;5.94;85.05;99066.34;105910;1256;61689;-23
2023/04/11 04:35:10;;;;;;;50.40;26.40;;;;;;;6.15;85.01;99067.83;105706;1258;61247;-23
2023/04/11 04:37:44;;;;;;;34.40;18.40;;;;;;;6.73;82.44;99062.20;105572;1260;74038;-23
2023/04/11 04:40:40;;;;;;;34.00;21.30;;;;;;;6.84;81.09;99064.64;105821;1255;74926;-23
2023/04/11 04:43:16;;;;;;;39.30;26.60;;;;;;;7.28;80.48;99064.32;105818;1254;74254;-23
2023/04/11 04:45:53;;;;;;;20.40;13.60;;;;;;;7.12;80.03;99063.86;105667;1258;62047;-24
2023/04/11 04:48:26;;;;;;;32.30;19.70;;;;;;;6.70;81.55;99063.30;105860;1256;61872;-23
2023/04/11 04:50:55;;;;;;;22.50;11.80;;;;;;;6.85;81.98;99065.40;105733;1255;75271;-23
2023/04/11 04:53:29;;;;;;;14.30;8.20;;;;;;;6.93;81.36;99067.86;105828;1251;75584;-23
2023/04/11 04:56:01;;;;;;;17.90;9.00;;;;;;;7.26;80.28;99065.83;105899;1252;74144;-23
2023/04/11 04:58:31;;;;;;;24.30;11.50;;;;;;;8.05;78.50;99061.64;105875;1252;61767;-23
2023/04/11 05:01:10;;;;;;;18.50;13.00;;;;;;;8.32;76.25;99061.26;105731;1252;61813;-23
2023/04/11 05:03:40;;;;;;;23.30;14.90;;;;;;;8.23;76.04;99057.64;105929;1255;75403;-23
2023/04/11 05:06:12;;;;;;;24.30;14.30;;;;;;;8.10;76.72;99056.13;105726;1258;75650;-23
2023/04/11 05:08:47;;;;;;;;;;;;;;;7.91;77.02;99050.90;105855;1254;74175;-24
2023/04/11 05:11:23;;;;;;;26.70;16.20;;;;;;;7.80;77.25;99049.58;105558;1254;61055;-24
2023/04/11 05:13:52;;;;;;;34.20;17.50;;;;;;;7.80;77.86;99051.65;105646;1254;61260;-23
2023/04/11 05:16:22;;;;;;;19.80;10.50;;;;;;;7.81;77.99;99048.10;105827;1254;75415;-23
2023/04/11 05:18:51;;;;;;;21.70;11.50;;;;;;;8.23;76.54;99042.23;105941;1253;75840;-23
2023/04/11 05:21:21;;;;;;;21.70;13.90;;;;;;;9.05;74.28;99039.89;105896;1254;74313;-24
2023/04/11 05:23:56;;;;;;;41.80;21.60;;;;;;;9.20;73.07;99041.38;105830;1253;61938;-23
2023/04/11 05:26:26;;;;;;;26.70;15.70;;;;;;;8.57;74.30;99039.45;105698;1257;61639;-24
2023/04/11 05:28:54;;;;;;;24.60;16.70;;;;;;;8.62;75.00;99043.07;105935;1256;75315;-24
2023/04/11 05:31:27;;;;;;;23.90;15.20;;;;;;;8.96;74.64;99035.61;105914;1255;74541;-23
2023/04/11 05:33:56;;;;;;;22.20;13.80;;;;;;;9.10;74.11;99036.73;105731;1254;74119;-24
2023/04/11 05:36:27;;;;;;;19.80;10.90;;;;;;;9.23;73.71;99032.69;105917;1256;61885;-23
2023/04/11 05:38:57;;;;;;;14.70;10.20;;;;;;;9.25;73.04;99026.85;105724;1257;61645;-23
2023/04/11 05:41:28;;;;;;;18.30;11.00;;;;;;;9.24;72.95;99021.55;105934;1254;75569;-23
2023/04/11 05:43:57;;;;;;;12.20;9.20;;;;;;;9.00;72.61;99020.05;105693;1252;75963;-23
2023/04/11 05:46:28;;;;;;;15.30;10.60;;;;;;;9.15;72.46;99021.15;105631;1253;74023;-24
2023/04/11 05:48:56;;;;;;;19.00;13.20;;;;;;;9.84;70.60;99017.23;105608;1252;61892;-24
2023/04/11 05:51:26;;;;;;;16.80;10.50;;;;;;;10.20;68.89;99011.10;105545;1257;61857;-24
2023/04/11 05:53:54;;;;;;;10.30;8.50;;;;;;;10.41;69.19;99013.13;105518;1251;75448;-23
2023/04/11 05:56:23;;;;;;;11.10;8.10;;;;;;;10.43;68.09;99009.80;105642;1251;75821;-24
2023/04/11 05:58:51;;;;;;;11.40;7.20;;;;;;;10.30;67.69;99008.09;105592;1254;74129;-24
2023/04/11 06:01:21;;;;;;;17.30;10.20;;;;;;;10.35;68.45;99006.65;105637;1256;61180;-24
2023/04/11 06:03:49;;;;;;;10.80;7.80;;;;;;;10.23;67.90;99007.79;105659;1251;61064;-24
2023/04/11 06:06:19;;;;;;;11.40;7.70;;;;;;;10.17;67.87;99004.77;105613;1253;74277;-23
2023/04/11 06:08:48;;;;;;;11.80;7.40;;;;;;;10.04;68.70;99003.03;105621;1256;75886;-23
2023/04/11 06:11:17;;;;;;;15.10;7.70;;;;;;;10.28;69.00;98998.86;105499;1254;74099;-24
2023/04/11 06:13:49;;;;;;;9.80;7.80;;;;;;;10.37;69.18;98995.38;105602;1253;61624;-23
2023/04/11 06:16:17;;;;;;;12.00;7.80;;;;;;;10.37;67.71;98992.63;105837;1256;61843;-23
2023/04/11 06:18:46;;;;;;;11.30;8.10;;;;;;;10.18;66.85;98989.61;105916;1251;75374;-23
2023/04/11 06:21:16;;;;;;;13.00;7.80;;;;;;;10.31;66.61;98992.85;105923;1255;75616;-23
2023/04/11 06:23:45;;;;;;;11.70;8.70;;;;;;;10.34;66.85;98993.05;105892;1256;74161;-24
2023/04/11 06:26:14;;;;;;;10.80;7.20;;;;;;;10.29;67.43;98990.97;105519;1257;61956;-23
2023/04/11 06:28:43;;;;;;;15.10;8.00;;;;;;;10.60;66.68;98989.23;105626;1256;61928;-24
2023/04/11 06:31:12;;;;;;;12.90;8.90;;;;;;;10.63;65.33;98992.96;105611;1252;75380;-23
2023/04/11 06:33:41;;;;;;;12.20;7.90;;;;;;;10.54;65.22;98990.92;105753;1256;75819;-23
2023/04/11 06:36:10;;;;;;;8.80;7.40;;;;;;;10.40;65.82;98992.36;105604;1253;74200;-24
2023/04/11 06:38:39;;;;;;;9.60;7.60;;;;;;;10.73;65.67;98994.25;105731;1252;61555;-23
2023/04/11 06:41:09;;;;;;;9.60;7.10;;;;;;;10.65;64.91;98989.68;105722;1258;61510;-23
2023/04/11 06:43:37;;;;;;;10.20;7.30;;;;;;;11.01;63.76;98995.92;105614;1253;75377;-23
2023/04/11 06:46:12;;;;;;;12.10;7.40;;;;;;;11.22;64.02;98998.83;105791;1255;75783;-23
2023/04/11 06:48:41;;;;;;;10.40;7.30;;;;;;;11.43;63.12;98999.27;105598;1254;74192;-23
2023/04/11 06:51:10;;;;;;;11.50;6.80;;;;;;;11.62;61.25;98994.08;105727;1251;61976;-22
2023/04/11 06:53:44;;;;;;;9.10;7.00;;;;;;;11.69;61.23;98993.39;105510;1252;61768;-23
2023/04/11 06:56:12;;;;;;;10.10;6.90;;;;;;;11.86;61.98;98995.42;105889;1253;74993;-23
2023/04/11 06:58:44;;;;;;;9.40;6.90;;;;;;;11.98;59.77;98991.48;105662;1256;75863;-23
2023/04/11 07:01:13;;;;;;;7.40;6.10;;;;;;;12.16;59.74;98989.52;105937;1253;73905;-23
2023/04/11 07:03:45;;;;;;;6.80;5.10;;;;;;;12.08;59.08;98990.61;105929;1254;61920;-24
2023/04/11 07:06:18;;;;;;;10.90;6.90;;;;;;;12.30;57.79;98990.00;105612;1257;61761;-24
2023/04/11 07:08:51;;;;;;;8.10;5.10;;;;;;;12.36;55.99;98988.14;105634;1252;75277;-24
2023/04/11 07:11:19;;;;;;;9.10;6.50;;;;;;;12.35;54.52;98985.14;105644;1253;75804;-24
2023/04/11 07:13:54;;;;;;;6.70;5.30;;;;;;;12.34;55.43;98982.71;105605;1254;74259;-22
2023/04/11 07:16:24;;;;;;;7.90;5.40;;;;;;;12.57;54.10;98975.93;105480;1253;61062;-22
2023/04/11 07:18:53;;;;;;;7.60;5.90;;;;;;;12.75;53.34;98974.64;105785;1254;61104;-24
2023/04/11 07:21:22;;;;;;;6.90;5.00;;;;;;;12.76;50.58;98969.88;105591;1257;75387;-22
2023/04/11 07:23:52;;;;;;;7.80;4.50;;;;;;;12.85;51.71;98965.21;105851;1256;75849;-21
2023/04/11 07:26:22;;;;;;;7.30;4.70;;;;;;;13.01;50.32;98960.61;105706;1253;74335;-23
2023/04/11 07:28:52;;;;;;;6.20;4.70;;;;;;;13.06;50.12;98960.38;105480;1253;61859;-24
2023/04/11 07:31:21;;;;;;;9.80;6.20;;;;;;;13.12;50.86;98960.51;105840;1255;61901;-24
2023/04/11 07:33:50;;;;;;;6.20;5.50;;;;;;;13.11;50.77;98958.31;105967;1253;75255;-24
2023/04/11 07:36:18;;;;;;;7.40;4.90;;;;;;;13.32;49.87;98955.00;105950;1253;75972;-22
2023/04/11 07:38:47;;;;;;;7.10;3.70;;;;;;;13.36;48.14;98947.64;105920;1254;74190;-22
2023/04/11 07:41:16;;;;;;;6.30;4.80;;;;;;;13.27;46.41;98945.64;105697;1254;61070;-21
2023/04/11 07:43:46;;;;;;;9.60;4.90;;;;;;;13.31;47.46;98945.31;105742;1252;61720;-22
2023/04/11 07:46:15;;;;;;;9.20;5.90;;;;;;;13.29;47.18;98947.61;105991;1256;74423;-22
2023/04/11 07:48:43;;;;;;;5.80;4.50;;;;;;;13.38;46.81;98947.98;105943;1256;75893;-21
2023/04/11 07:51:12;;;;;;;5.80;4.20;;;;;;;13.50;47.27;98948.74;105923;1253;74144;-22
2023/04/11 07:53:40;;;;;;;8.50;4.90;;;;;;;13.67;45.37;98941.56;105672;1253;61929;-22
2023/04/11 07:56:09;;;;;;;7.00;5.60;;;;;;;13.75;45.72;98938.73;105931;1256;61622;-23
2023/04/11 07:58:38;;;;;;;7.80;4.90;;;;;;;13.82;45.55;98933.16;105893;1252;75386;-22
2023/04/11 08:01:13;;;;;;;6.40;4.40;;;;;;;13.91;47.07;98927.60;105776;1253;75452;-22
2023/04/11 08:03:42;;;;;;;4.10;3.30;;;;;;;14.18;45.45;98923.77;105531;1253;74152;-23
2023/04/11 08:06:11;;;;;;;8.10;4.50;;;;;;;14.20;43.76;98918.54;105950;1253;61865;-22
2023/04/11 08:08:41;;;;;;;6.20;4.80;;;;;;;14.08;44.44;98920.25;105952;1255;61963;-22
2023/04/11 08:18:46;;;;;;;7.70;5.70;;;;;;;14.61;43.47;98903.96;102685;1292;600149;-21
2023/04/11 08:21:15;;;;;;;5.20;3.70;;;;;;;14.50;41.77;98900.00;105110;1269;61830;-22
2023/04/11 08:23:45;;;;;;;6.20;4.30;;;;;;;14.35;41.24;98899.20;104914;1264;61858;-22
2023/04/11 08:26:15;;;;;;;6.10;4.70;;;;;;;14.22;40.00;98893.87;105124;1266;72823;-22
2023/04/11 08:28:44;;;;;;;7.60;5.40;;;;;;;14.05;39.90;98890.32;105090;1277;75812;-25
2023/04/11 08:31:14;;;;;;;5.80;4.30;;;;;;;13.98;41.02;98888.17;104326;1269;2427507;-25
2023/04/11 08:33:42;;;;;;;6.10;4.00;;;;;;;14.00;40.92;98885.92;104869;1262;61460;-22
2023/04/11 08:36:11;;;;;;;8.10;4.90;;;;;;;14.07;40.56;98882.09;105183;1267;61603;-22
2023/04/11 08:38:40;;;;;;;4.60;3.60;;;;;;;14.20;41.66;98885.19;105245;1265;73762;-22
2023/04/11 08:41:09;;;;;;;7.90;6.00;;;;;;;14.31;41.82;98885.17;105130;1269;75592;-27
2023/04/11 08:43:43;;;;;;;10.10;5.10;;;;;;;14.45;40.57;98886.50;105225;1266;73949;-22
2023/04/11 08:46:12;;;;;;;7.90;4.40;;;;;;;14.71;40.52;98879.98;105035;1267;62259;-22
2023/04/11 08:48:43;;;;;;;7.20;4.90;;;;;;;14.75;38.75;98880.36;105094;1268;62436;-21
2023/04/11 08:51:13;;;;;;;7.50;4.70;;;;;;;14.93;40.11;98878.30;105134;1263;74579;-22
2023/04/11 08:53:42;;;;;;;6.50;4.70;;;;;;;15.03;39.67;98876.56;105194;1269;75937;-22
2023/04/11 08:56:15;;;;;;;6.40;5.00;;;;;;;14.94;37.02;98869.63;104994;1270;74236;-22
2023/04/11 08:58:44;;;;;;;;;;;;;;;15.08;36.91;98861.70;104937;1270;61934;-23
2023/04/11 09:01:32;;;;;;;5.70;4.50;;;;;;;15.17;36.91;98858.16;105429;1271;61634;-23
2023/04/11 09:04:03;;;;;;;6.10;5.10;;;;;;;15.11;36.97;98859.86;105271;1265;74515;-23
2023/04/11 09:06:35;;;;;;;6.10;3.70;;;;;;;15.02;36.40;98854.09;105455;1263;75625;-23
2023/04/11 09:09:04;;;;;;;7.10;3.80;;;;;;;15.04;36.92;98854.58;105651;1260;73128;-23
2023/04/11 09:11:53;;;;;;;5.70;4.00;;;;;;;15.18;36.60;98850.20;105626;1256;61076;-23
2023/04/11 09:14:28;;;;;;;10.20;5.50;;;;;;;15.14;36.20;98839.95;105281;1257;61202;-23
2023/04/11 09:16:57;;;;;;;8.70;4.70;;;;;;;15.25;36.52;98842.97;105302;1257;74433;-23
2023/04/11 09:19:28;;;;;;;5.60;3.40;;;;;;;15.26;35.71;98833.07;105343;1261;74974;-23
2023/04/11 09:22:00;;;;;;;7.70;5.00;;;;;;;15.44;35.70;98842.08;105475;1260;73984;-23
2023/04/11 09:24:29;;;;;;;7.80;4.80;;;;;;;15.17;35.85;98833.69;105439;1258;61109;-23
2023/04/11 09:27:09;;;;;;;6.30;4.80;;;;;;;15.14;35.91;98836.80;105580;1260;61777;-24
2023/04/11 09:29:41;;;;;;;4.60;3.80;;;;;;;15.41;36.50;98836.92;105577;1260;74116;-23
2023/04/11 09:32:28;;;;;;;10.20;5.70;;;;;;;15.31;34.50;98834.02;105482;1260;75006;-22
2023/04/11 09:35:17;;;;;;;5.90;3.50;;;;;;;14.78;35.41;98832.19;105172;1257;73866;-23
2023/04/11 09:37:54;;;;;;;8.90;3.90;;;;;;;15.18;36.13;98823.44;105138;1258;61894;-23
2023/04/11 09:40:30;;;;;;;6.20;3.80;;;;;;;15.24;35.93;98820.84;105241;1271;61907;-23
2023/04/11 09:43:00;;;;;;;5.60;4.40;;;;;;;15.56;35.36;98818.38;105409;1262;74458;-23
2023/04/11 09:45:29;;;;;;;4.80;3.10;;;;;;;15.62;35.03;98815.69;105218;1261;74642;-23
2023/04/11 09:48:05;;;;;;;7.90;4.10;;;;;;;15.58;35.40;98801.59;105436;1263;74189;-24
2023/04/11 09:50:37;;;;;;;7.70;4.40;;;;;;;15.75;35.39;98805.17;105299;1257;61091;-23
2023/04/11 09:53:05;;;;;;;7.90;5.00;;;;;;;15.86;35.24;98802.84;105119;1264;61893;-23
2023/04/11 09:55:36;;;;;;;8.10;5.10;;;;;;;16.04;35.82;98797.58;105287;1260;74689;-23
2023/04/11 09:58:05;;;;;;;5.70;4.40;;;;;;;16.16;35.11;98791.73;105133;1264;75874;-24
2023/04/11 10:00:34;;;;;;;7.90;3.80;;;;;;;16.32;34.57;98792.30;105481;1256;74063;-23
2023/04/11 10:03:03;;;;;;;6.60;4.80;;;;;;;16.06;33.51;98786.59;105298;1260;61560;-24
2023/04/11 10:05:35;;;;;;;5.30;4.20;;;;;;;15.93;33.59;98785.68;105506;1261;61874;-24
2023/04/11 10:08:10;;;;;;;5.60;3.50;;;;;;;16.15;33.65;98779.27;105217;1263;74315;-24
2023/04/11 10:10:39;;;;;;;8.20;5.30;;;;;;;16.15;34.63;98783.00;105116;1258;74604;-23
2023/04/11 10:13:40;;;;;;;9.10;4.90;;;;;;;16.44;36.13;98781.85;105173;1262;74170;-24
2023/04/11 10:16:09;;;;;;;6.70;4.30;;;;;;;16.61;34.05;98775.33;105490;1257;61655;-24
2023/04/11 10:18:53;;;;;;;10.40;3.80;;;;;;;16.72;32.97;98767.30;105626;1262;61881;-24
2023/04/11 10:21:31;;;;;;;6.70;3.60;;;;;;;16.71;33.91;98757.56;105618;1260;74144;-23
2023/04/11 10:24:07;;;;;;;6.90;4.70;;;;;;;16.97;33.48;98756.39;105601;1268;75801;-24
2023/04/11 10:26:57;;;;;;;10.00;4.90;;;;;;;17.15;32.77;98752.71;105494;1258;74448;-24
2023/04/11 10:29:28;;;;;;;5.80;3.70;;;;;;;16.27;34.56;98751.13;105453;1258;62013;-23
2023/04/11 10:32:16;;;;;;;8.00;3.60;;;;;;;17.02;33.73;98743.20;105172;1260;61796;-24
2023/04/11 10:34:50;;;;;;;8.80;6.00;;;;;;;17.59;31.99;98729.80;105451;1257;74558;-23
2023/04/11 10:37:31;;;;;;;13.60;7.30;;;;;;;16.87;33.93;98732.93;105329;1260;75859;-23
2023/04/11 10:40:11;;;;;;;11.30;6.30;;;;;;;17.10;33.13;98726.95;105518;1261;74117;-24
2023/04/11 10:42:43;;;;;;;5.50;4.20;;;;;;;16.22;33.07;98724.23;105482;1264;61072;-23
2023/04/11 10:45:29;;;;;;;5.20;4.00;;;;;;;17.05;32.58;98713.32;105502;1260;61955;-22
2023/04/11 10:48:06;;;;;;;10.30;4.10;;;;;;;17.42;32.50;98706.98;105317;1263;74363;-23
2023/04/11 10:50:39;;;;;;;8.10;4.40;;;;;;;17.90;31.48;98697.07;105302;1257;74788;-23
2023/04/11 10:53:32;;;;;;;7.20;4.30;;;;;;;17.98;32.58;98697.36;105504;1261;72906;-23
2023/04/11 10:56:01;;;;;;;5.20;4.20;;;;;;;17.79;31.61;98693.00;105640;1261;61931;-23
2023/04/11 10:58:38;;;;;;;6.30;4.00;;;;;;;17.75;31.53;98690.91;105563;1257;61786;-23
2023/04/11 11:01:17;;;;;;;12.30;7.20;;;;;;;17.73;32.86;98691.05;105277;1263;74424;-24
2023/04/11 11:03:51;;;;;;;8.50;5.30;;;;;;;17.66;32.06;98684.34;105310;1257;75671;-23
2023/04/11 11:06:20;;;;;;;7.80;5.30;;;;;;;17.76;33.65;98677.95;105379;1257;74189;-23
2023/04/11 11:08:48;;;;;;;4.00;3.30;;;;;;;17.51;34.67;98675.61;105633;1258;61100;-23
2023/04/11 11:11:19;;;;;;;7.70;5.10;;;;;;;17.44;33.73;98676.95;105493;1262;61168;-24
2023/04/11 11:13:54;;;;;;;6.10;5.00;;;;;;;17.37;33.79;98677.59;105378;1258;73879;-23
2023/04/11 11:16:24;;;;;;;6.70;4.40;;;;;;;17.22;34.68;98672.45;105559;1263;74004;-24
2023/04/11 11:19:05;;;;;;;8.00;5.30;;;;;;;17.16;36.01;98668.79;105352;1256;73925;-23
2023/04/11 11:21:33;;;;;;;11.60;4.90;;;;;;;16.87;35.58;98666.56;105353;1258;61610;-23
2023/04/11 11:24:02;;;;;;;8.00;4.20;;;;;;;16.73;36.06;98664.58;105418;1261;61576;-23
2023/04/11 11:26:41;;;;;;;9.20;5.10;;;;;;;16.77;35.86;98661.18;105547;1261;74472;-23
2023/04/11 11:29:10;;;;;;;9.10;4.90;;;;;;;16.48;36.55;98660.89;105291;1257;75735;-23
2023/04/11 11:31:40;;;;;;;6.10;3.90;;;;;;;16.81;36.35;98662.46;105530;1260;74210;-24
2023/04/11 11:34:10;;;;;;;7.70;5.10;;;;;;;17.01;35.49;98657.48;105491;1256;61744;-24
2023/04/11 11:36:52;;;;;;;8.60;6.20;;;;;;;17.00;36.01;98650.59;105535;1260;62018;-23
2023/04/11 11:39:20;;;;;;;7.80;5.30;;;;;;;16.52;36.22;98650.69;105209;1260;74092;-23
2023/04/11 11:41:52;;;;;;;7.40;4.50;;;;;;;16.60;36.23;98651.20;105143;1262;74919;-22
2023/04/11 11:44:25;;;;;;;7.70;5.70;;;;;;;16.83;36.13;98644.23;105561;1257;74165;-22
2023/04/11 11:47:04;;;;;;;6.80;4.50;;;;;;;16.94;35.08;98640.37;105159;1258;61829;-23
2023/04/11 11:49:46;;;;;;;7.10;4.80;;;;;;;16.81;35.00;98635.96;105399;1262;61860;-22
2023/04/11 11:52:35;;;;;;;9.00;4.80;;;;;;;16.19;36.66;98631.25;105403;1257;74355;-23